createdAt,value
2022-09-15T00:00:30.617Z,59.48624
2022-09-15T00:05:32.220Z,58.19013
2022-09-15T00:10:33.852Z,57.99727
2022-09-15T00:15:35.502Z,59.76066
2022-09-15T00:20:37.423Z,62.49711
2022-09-15T00:25:39.081Z,60.9894
2022-09-15T00:30:41.028Z,56.91515
2022-09-15T00:35:42.727Z,59.55294
2022-09-15T00:40:44.367Z,61.07212
2022-09-15T00:45:46.060Z,61.25041
2022-09-15T00:50:47.767Z,63.21099
2022-09-15T00:55:49.415Z,62.97396
2022-09-15T01:00:51.110Z,63.05925
2022-09-15T01:05:52.847Z,63.09263
2022-09-15T01:10:54.505Z,61.97324
2022-09-15T01:15:56.276Z,64.87369
2022-09-15T01:20:57.956Z,63.12508
2022-09-15T01:25:59.595Z,62.24381
2022-09-15T01:31:01.228Z,66.105
2022-09-15T01:36:02.803Z,68.63009
2022-09-15T01:41:04.409Z,68.18272
2022-09-15T01:46:06.162Z,70.03263
2022-09-15T01:51:07.825Z,70.40667
2022-09-15T01:56:09.470Z,71.43643
2022-09-15T02:01:11.129Z,65.97509
2022-09-15T02:06:12.903Z,68.64058
2022-09-15T02:11:14.583Z,67.03353
2022-09-15T02:16:16.256Z,65.44025
2022-09-15T02:21:17.927Z,67.6221
2022-09-15T02:26:19.538Z,65.44435
2022-09-15T02:31:21.222Z,67.4068
2022-09-15T02:36:22.878Z,67.93661
2022-09-15T02:41:24.625Z,67.42766
2022-09-15T02:46:26.274Z,66.79884
2022-09-15T02:51:27.969Z,68.69273
2022-09-15T02:56:29.613Z,69.21206
2022-09-15T03:01:31.251Z,67.50876
2022-09-15T03:06:32.847Z,67.58081
2022-09-15T03:11:34.449Z,66.20834
2022-09-15T03:16:36.352Z,65.4636
2022-09-15T03:21:38.079Z,64.18653
2022-09-15T03:26:39.674Z,65.49324
2022-09-15T03:31:41.440Z,66.81555
2022-09-15T03:36:43.112Z,64.90582
2022-09-15T03:41:44.801Z,66.85744
2022-09-15T03:46:46.422Z,66.95955
2022-09-15T03:51:48.078Z,69.6579
2022-09-15T03:56:49.759Z,66.91935
2022-09-15T04:01:51.385Z,65.8554
2022-09-15T04:06:53.063Z,65.30833
2022-09-15T04:11:54.658Z,65.38386
2022-09-15T04:16:56.236Z,67.22076
2022-09-15T04:21:57.861Z,69.58051
2022-09-15T04:26:59.480Z,74.03654
2022-09-15T04:32:01.309Z,71.3032
2022-09-15T04:37:02.925Z,71.47143
2022-09-15T04:42:04.560Z,69.01163
2022-09-15T04:47:06.307Z,66.89472
2022-09-15T04:52:09.898Z,67.89883
2022-09-15T04:57:11.753Z,72.12066
2022-09-15T05:02:13.419Z,68.76006
2022-09-15T05:07:15.066Z,67.66537
2022-09-15T05:12:16.700Z,68.8305
2022-09-15T05:17:18.268Z,67.90409
2022-09-15T05:22:19.855Z,68.25024
2022-09-15T05:27:21.470Z,70.44367
2022-09-15T05:32:23.151Z,68.14666
2022-09-15T05:37:24.751Z,70.464
2022-09-15T05:42:26.357Z,67.73586
2022-09-15T05:47:28.150Z,67.17066
2022-09-15T05:52:29.829Z,69.01921
2022-09-15T05:57:31.420Z,70.26921
2022-09-15T06:02:33.285Z,68.67594
2022-09-15T06:07:34.934Z,67.9742
2022-09-15T06:12:36.679Z,72.78366
2022-09-15T06:17:38.269Z,71.1741
2022-09-15T06:22:39.904Z,71.8852
2022-09-15T06:27:41.671Z,77.15851
2022-09-15T06:32:47.425Z,71.79239
2022-09-15T06:37:49.871Z,69.65263
2022-09-15T06:42:51.503Z,69.39358
2022-09-15T06:48:07.611Z,69.90593
2022-09-15T06:53:22.258Z,68.05561
2022-09-15T06:58:23.876Z,68.13391
2022-09-15T07:03:25.598Z,69.53608
2022-09-15T07:08:27.287Z,72.41053
2022-09-15T07:13:28.915Z,74.84701
2022-09-15T07:18:30.731Z,73.77498
2022-09-15T07:23:32.417Z,73.35233
2022-09-15T07:28:34.051Z,69.51455
2022-09-15T07:33:35.700Z,69.40627
2022-09-15T07:38:37.310Z,70.93425
2022-09-15T07:43:38.948Z,74.1908
2022-09-15T07:48:40.575Z,72.9515
2022-09-15T07:53:42.210Z,72.68836
2022-09-15T07:58:43.792Z,77.98495
2022-09-15T08:03:45.478Z,76.98759
2022-09-15T08:08:47.196Z,74.00863
2022-09-15T08:13:48.827Z,74.38654
2022-09-15T08:18:50.444Z,76.00449
2022-09-15T08:23:52.057Z,76.64345
2022-09-15T08:28:53.834Z,72.281
2022-09-15T08:33:55.563Z,72.34551
2022-09-15T08:38:57.260Z,70.47332
2022-09-15T08:43:58.899Z,73.39401
2022-09-15T08:49:02.999Z,71.12807
2022-09-15T08:54:05.003Z,71.16365
2022-09-15T08:59:06.592Z,74.66126
2022-09-15T09:04:08.229Z,71.52974
2022-09-15T09:09:09.859Z,69.56173
2022-09-15T09:14:11.475Z,70.02462
2022-09-15T09:19:13.069Z,69.52846
2022-09-15T09:24:14.746Z,68.45889
2022-09-15T09:29:16.410Z,72.62005
2022-09-15T09:34:18.039Z,71.18121
2022-09-15T09:39:19.624Z,71.84965
2022-09-15T09:44:21.315Z,71.1879
2022-09-15T09:49:23.007Z,72.76843
2022-09-15T09:54:24.545Z,76.23401
2022-09-15T09:59:26.204Z,76.21532
2022-09-15T10:04:27.840Z,72.87805
2022-09-15T10:09:33.234Z,71.83189
2022-09-15T10:14:35.281Z,70.5649
2022-09-15T10:19:36.877Z,73.144
2022-09-15T10:24:38.485Z,72.52986
2022-09-15T10:29:40.078Z,72.70395
2022-09-15T10:34:41.709Z,72.05402
2022-09-15T10:39:43.324Z,73.15893
2022-09-15T10:44:44.954Z,72.59049
2022-09-15T10:49:46.697Z,72.35059
2022-09-15T10:54:48.413Z,72.44196
2022-09-15T10:59:50.034Z,76.75859
2022-09-15T11:04:51.723Z,72.66208
2022-09-15T11:09:53.351Z,72.01442
2022-09-15T11:14:54.989Z,71.51595
2022-09-15T11:19:56.602Z,73.42892
2022-09-15T11:24:58.220Z,75.67934
2022-09-15T11:29:59.855Z,73.08357
2022-09-15T11:35:01.490Z,71.56038
2022-09-15T11:40:03.130Z,74.4283
2022-09-15T11:45:04.804Z,73.55705
2022-09-15T11:50:06.467Z,72.01811
2022-09-15T11:55:08.069Z,73.58984
2022-09-15T12:00:09.737Z,71.31597
2022-09-15T12:05:11.391Z,69.82526
2022-09-15T12:10:12.954Z,71.66652
2022-09-15T12:15:14.560Z,71.7406
2022-09-15T12:20:16.389Z,72.81076
2022-09-15T12:25:18.057Z,73.60213
2022-09-15T12:30:19.637Z,70.65596
2022-09-15T12:35:21.274Z,71.66776
2022-09-15T12:40:22.961Z,77.04255
2022-09-15T12:45:24.602Z,72.18379
2022-09-15T12:50:26.222Z,70.99968
2022-09-15T12:55:27.809Z,70.94581
2022-09-15T13:00:29.414Z,74.0919
2022-09-15T13:05:31.035Z,74.93148
2022-09-15T13:10:32.677Z,73.23003
2022-09-15T13:15:35.543Z,70.55883
2022-09-15T13:20:37.171Z,73.30939
2022-09-15T13:25:38.802Z,71.7267
2022-09-15T13:30:40.522Z,70.39564
2022-09-15T13:35:42.247Z,71.03084
2022-09-15T13:40:43.860Z,72.42049
2022-09-15T13:45:45.515Z,71.82112
2022-09-15T13:50:47.112Z,74.19209
2022-09-15T13:55:48.729Z,72.98591
2022-09-15T14:00:50.342Z,73.42458
2022-09-15T14:05:51.972Z,71.09473
2022-09-15T14:10:53.572Z,73.17605
2022-09-15T14:15:55.267Z,71.66963
2022-09-15T14:20:56.917Z,76.64676
2022-09-15T14:25:58.539Z,73.61448
2022-09-15T14:31:00.146Z,76.53068
2022-09-15T14:36:01.851Z,78.67533
2022-09-15T14:41:03.454Z,73.936
2022-09-15T14:46:08.837Z,71.18858
2022-09-15T14:51:11.007Z,69.27948
2022-09-15T14:56:12.645Z,68.21752
2022-09-15T15:01:14.283Z,70.17834
2022-09-15T15:06:29.466Z,69.50707
2022-09-15T15:11:31.562Z,71.18278
2022-09-15T15:16:33.347Z,69.25311
2022-09-15T15:21:35.055Z,64.8959
2022-09-15T15:26:36.721Z,62.77035
2022-09-15T15:31:38.397Z,62.72496
2022-09-15T15:36:40.109Z,62.28732
2022-09-15T15:41:41.796Z,62.35642
2022-09-15T15:46:43.556Z,61.64936
2022-09-15T15:51:45.136Z,60.30876
2022-09-15T15:56:46.757Z,60.97578
2022-09-15T16:01:48.426Z,61.40453
2022-09-15T16:06:50.086Z,61.83759
2022-09-15T16:11:51.969Z,60.01685
2022-09-15T16:16:53.600Z,59.81788
2022-09-15T16:21:55.202Z,60.30008
2022-09-15T16:26:56.796Z,56.73426
2022-09-15T16:31:58.458Z,56.09306
2022-09-15T16:37:00.115Z,55.27522
2022-09-15T16:42:01.711Z,53.6815
2022-09-15T16:47:03.484Z,57.83607
2022-09-15T16:52:05.110Z,54.61626
2022-09-15T16:57:06.768Z,53.97581
2022-09-15T17:02:08.519Z,58.06035
2022-09-15T17:07:10.183Z,53.99089
2022-09-15T17:17:13.510Z,50.43168
2022-09-15T17:22:15.169Z,49.55719
2022-09-15T17:27:17.082Z,50.62262
2022-09-15T17:32:18.752Z,51.2973
2022-09-15T17:37:20.449Z,48.75345
2022-09-15T17:42:22.404Z,47.02472
2022-09-15T17:47:24.049Z,50.22668
2022-09-15T17:52:25.676Z,48.39775
2022-09-15T17:57:27.302Z,47.0949
2022-09-15T18:02:29.052Z,47.07295
2022-09-15T18:07:30.808Z,46.85165
2022-09-15T18:12:32.559Z,47.6743
2022-09-15T18:17:34.189Z,49.91828
2022-09-15T18:22:35.822Z,47.94568
2022-09-15T18:27:37.427Z,49.7873
2022-09-15T18:32:39.396Z,47.99672
2022-09-15T18:37:41.013Z,48.38261
2022-09-15T18:42:42.663Z,49.0024
2022-09-15T18:47:44.276Z,48.01474
2022-09-15T18:52:45.889Z,48.08806
2022-09-15T18:57:47.521Z,46.87567
2022-09-15T19:02:49.175Z,43.54882
2022-09-15T19:07:50.841Z,47.19039
2022-09-15T19:12:52.453Z,44.70327
2022-09-15T19:17:54.057Z,47.13818
2022-09-15T19:22:55.712Z,43.84731
2022-09-15T19:27:57.341Z,43.631
2022-09-15T19:32:58.990Z,45.55284
2022-09-15T19:38:00.627Z,43.94987
2022-09-15T19:43:02.307Z,42.48271
2022-09-15T19:48:03.971Z,40.50112
2022-09-15T19:53:05.630Z,42.19928
2022-09-15T19:58:07.289Z,40.95357
2022-09-15T20:03:08.926Z,41.04634
2022-09-15T20:08:10.622Z,38.0543
2022-09-15T20:13:12.238Z,37.82919
2022-09-15T20:18:13.835Z,38.32714
2022-09-15T20:23:15.557Z,38.62414
2022-09-15T20:28:17.281Z,39.44962
2022-09-15T20:33:18.935Z,40.75628
2022-09-15T20:38:20.568Z,37.932
2022-09-15T20:43:22.156Z,38.83891
2022-09-15T20:48:23.731Z,40.52999
2022-09-15T20:53:25.399Z,41.50339
2022-09-15T20:58:27.057Z,41.83285
2022-09-15T21:03:28.669Z,41.80937
2022-09-15T21:08:30.336Z,42.98226
2022-09-15T21:13:31.928Z,41.60166
2022-09-15T21:18:33.617Z,39.74656
2022-09-15T21:23:35.330Z,39.61778
2022-09-15T21:28:36.946Z,41.58576
2022-09-15T21:33:38.560Z,40.07655
2022-09-15T21:38:40.212Z,40.28111
2022-09-15T21:43:41.846Z,40.99999
2022-09-15T21:48:43.589Z,41.86505
2022-09-15T21:53:45.222Z,40.52383
2022-09-15T21:58:46.845Z,39.50675
2022-09-15T22:03:48.473Z,40.10651
2022-09-15T22:08:50.126Z,38.98601
2022-09-15T22:13:51.777Z,43.84092
2022-09-15T22:18:53.503Z,40.06549
2022-09-15T22:23:55.238Z,40.30362
2022-09-15T22:28:56.854Z,40.71534
2022-09-15T22:33:58.457Z,41.65442
2022-09-15T22:39:00.081Z,40.17018
2022-09-15T22:44:01.702Z,40.58158
2022-09-15T22:49:03.322Z,38.85885
2022-09-15T22:54:04.930Z,40.88398
2022-09-15T22:59:06.625Z,41.50509
2022-09-15T23:04:08.210Z,39.2927
2022-09-15T23:09:09.822Z,37.5792
2022-09-15T23:14:11.503Z,38.74064
2022-09-15T23:19:13.156Z,43.06746
2022-09-15T23:24:14.751Z,45.33817
2022-09-15T23:29:16.388Z,42.60292
2022-09-15T23:34:18.000Z,43.53423
2022-09-15T23:39:19.642Z,44.47121
2022-09-15T23:44:21.316Z,43.68398
2022-09-15T23:49:23.070Z,43.64076
2022-09-15T23:54:24.791Z,48.13771
2022-09-15T23:59:26.429Z,48.6616
